Vera Bisso — WDC3027 — position and weather

sailwx.info

Track history (hours):
 
Tides and Currents Weather Stations Pressure Air Temp Water Temp Dewpoint Dewpoint Depression Visibility Wind Speed Wind Dir Waves Ship Positions

Vera Bisso

More information available from US FCC via Universal Licensing System and Coast Guard Vessel Documentation Center.

Last reported at 2014-Sep-02 11:25 UTC. Time now 2014-Sep-02 18:55 UTC.
Position N 30°01' W 090°47'.

Length 30 m; draft 6 m.

Type: Tug. MMSI: 367001730.

Date/timePositionNaut miles runAvg speedWind from/ knotsBaromVisibWave heightAir tempDewpointWater temp
2014-Sep-02 11:25N 30°01' W 090°47'8 9.0
2014-Sep-02 10:33N 30°02' W 090°38'4 3.9
2014-Sep-02 09:33N 30°03' W 090°33'0 0.0
2014-Sep-02 08:33N 30°03' W 090°33'0 0.0
2014-Sep-02 07:33N 30°03' W 090°33'0 0.0
2014-Sep-02 06:33N 30°03' W 090°33'0 0.0
2014-Sep-02 05:33N 30°03' W 090°33'0 0.0
2014-Sep-02 04:33N 30°03' W 090°33'1 0.7
2014-Sep-02 03:33N 30°03' W 090°34'1 0.7
2014-Sep-02 02:33N 30°03' W 090°33'0 0.0
2014-Sep-02 01:33N 30°03' W 090°33'0 0.0
2014-Sep-02 00:33N 30°03' W 090°33'0 0.0
2014-Sep-01 23:33N 30°03' W 090°33'0 0.0
2014-Sep-01 22:33N 30°03' W 090°33'0 0.0
2014-Sep-01 21:33N 30°03' W 090°33'0 0.0
2014-Sep-01 20:33N 30°03' W 090°33'2 1.7
2014-Sep-01 19:33N 30°03' W 090°35'2 1.7
2014-Sep-01 18:33N 30°03' W 090°33'0 0.0
2014-Sep-01 17:33N 30°03' W 090°33'0 0.0
2014-Sep-01 16:33N 30°03' W 090°33'0 0.0
2014-Sep-01 15:33N 30°03' W 090°33'0 0.0
2014-Sep-01 14:33N 30°03' W 090°33'0 0.0
2014-Sep-01 13:33N 30°03' W 090°33'0 0.0
2014-Sep-01 12:33N 30°03' W 090°33'0 0.0
2014-Sep-01 11:33N 30°03' W 090°33'0 0.0
2014-Sep-01 10:33N 30°03' W 090°33'1 0.8
2014-Sep-01 09:33N 30°03' W 090°34'1 0.8
2014-Sep-01 08:33N 30°03' W 090°33'0 0.0
2014-Sep-01 07:33N 30°03' W 090°33'0 0.0
2014-Sep-01 06:34N 30°03' W 090°33'0 0.0
2014-Sep-01 05:33N 30°03' W 090°33'0 0.0
2014-Sep-01 04:33N 30°03' W 090°33'0 0.0
2014-Sep-01 03:33N 30°03' W 090°33'0 0.0
2014-Sep-01 02:33N 30°03' W 090°33'0 0.0
2014-Sep-01 01:33N 30°03' W 090°33'0 0.0
2014-Sep-01 00:33N 30°03' W 090°33'0 0.0
2014-Aug-31 23:33N 30°03' W 090°33'0 0.0
2014-Aug-31 22:33N 30°03' W 090°33'0 0.0
2014-Aug-31 21:33N 30°03' W 090°33'0 0.0
2014-Aug-31 20:33N 30°03' W 090°33'0 0.0
2014-Aug-31 19:33N 30°03' W 090°33'0 0.0
2014-Aug-31 18:33N 30°03' W 090°33'0 0.0
2014-Aug-31 17:33N 30°03' W 090°33'0 0.0
2014-Aug-31 16:33N 30°03' W 090°33'0 0.0
2014-Aug-31 15:33N 30°03' W 090°33'0 0.0
2014-Aug-31 14:33N 30°03' W 090°33'0 0.0
2014-Aug-31 13:33N 30°03' W 090°33'2 1.7
2014-Aug-31 12:33N 30°03' W 090°35'0 0.4
2014-Aug-31 11:33N 30°03' W 090°35'0 0.0
2014-Aug-31 10:33N 30°03' W 090°35'0 0.0
2014-Aug-31 09:33N 30°03' W 090°35'0 0.0
2014-Aug-31 08:33N 30°03' W 090°35'0 0.0
2014-Aug-31 07:33N 30°03' W 090°35'0 0.0
2014-Aug-31 06:34N 30°03' W 090°35'0 0.0
2014-Aug-31 05:34N 30°03' W 090°35'0 0.0
2014-Aug-31 04:33N 30°03' W 090°35'0 0.0
2014-Aug-31 03:33N 30°03' W 090°35'0 0.0
2014-Aug-31 02:33N 30°03' W 090°35'0 0.4
2014-Aug-31 01:33N 30°03' W 090°35'0 0.4
2014-Aug-31 00:33N 30°03' W 090°35'0 0.0
2014-Aug-30 23:33N 30°03' W 090°35'0 0.0
2014-Aug-30 22:33N 30°03' W 090°35'0 0.0
2014-Aug-30 21:33N 30°03' W 090°35'0 0.4
2014-Aug-30 20:34N 30°03' W 090°35'0 0.0
2014-Aug-30 19:34N 30°03' W 090°35'0 0.4
2014-Aug-30 18:33N 30°03' W 090°35'0 0.0
2014-Aug-30 17:33N 30°03' W 090°35'0 0.0
2014-Aug-30 16:33N 30°03' W 090°35'0 0.0
2014-Aug-30 15:33N 30°03' W 090°35'0 0.0
2014-Aug-30 14:33N 30°03' W 090°35'0 0.3
2014-Aug-30 13:34N 30°03' W 090°35'0 0.3
2014-Aug-30 12:33N 30°03' W 090°35'0 0.0
2014-Aug-30 11:33N 30°03' W 090°35'3 2.7
2014-Aug-30 10:33N 30°03' W 090°32'1 1.4
2014-Aug-30 09:33N 30°03' W 090°33'0 0.0
2014-Aug-30 08:33N 30°03' W 090°33'0 0.0
2014-Aug-30 07:33N 30°03' W 090°33'0 0.0
2014-Aug-30 06:33N 30°03' W 090°33'0 0.0
2014-Aug-30 05:34N 30°03' W 090°33'0 0.0
2014-Aug-30 04:33N 30°03' W 090°33'0 0.0
2014-Aug-30 03:33N 30°03' W 090°33'0 0.0
2014-Aug-30 02:33N 30°03' W 090°33'0 0.0
2014-Aug-30 01:33N 30°03' W 090°33'0 0.0
2014-Aug-30 00:33N 30°03' W 090°33'0 0.0
2014-Aug-29 23:33N 30°03' W 090°33'0 0.0
2014-Aug-29 22:33N 30°03' W 090°33'0 0.0
2014-Aug-29 21:33N 30°03' W 090°33'1 0.6
2014-Aug-29 20:33N 30°03' W 090°34'2 0.3
2014-Aug-29 14:33N 30°03' W 090°32'1 1.2
2014-Aug-29 13:33N 30°03' W 090°33'0 0.0
2014-Aug-29 12:33N 30°03' W 090°33'1 1.4
2014-Aug-29 11:33N 30°03' W 090°32'1 1.4
2014-Aug-29 10:33N 30°03' W 090°33'0 0.0
2014-Aug-29 09:33N 30°03' W 090°33'0 0.0
2014-Aug-29 08:33N 30°03' W 090°33'0 0.0
2014-Aug-29 07:33N 30°03' W 090°33'0 0.0
2014-Aug-29 06:33N 30°03' W 090°33'0 0.0
2014-Aug-29 05:33N 30°03' W 090°33'0 0.0
2014-Aug-29 04:33N 30°03' W 090°33'0 0.0
2014-Aug-29 03:33N 30°03' W 090°33'0 0.0
2014-Aug-29 02:33N 30°03' W 090°33'0 0.0
2014-Aug-29 01:33N 30°03' W 090°33'0 0.0
2014-Aug-29 00:33N 30°03' W 090°33'5 2.7
2014-Aug-28 22:33N 30°03' W 090°40'3 0.9
2014-Aug-28 19:14N 30°02' W 090°36'1 2.1
2014-Aug-28 18:33N 30°03' W 090°35'1 0.7
2014-Aug-28 17:33N 30°03' W 090°34'1 0.8
2014-Aug-28 16:33N 30°03' W 090°35'4 1.0
2014-Aug-28 12:30N 30°03' W 090°40'0 0.5
2014-Aug-28 11:33N 30°03' W 090°40'9 1.1
2014-Aug-28 03:32N 30°00' W 090°50'9 0.6
2014-Aug-27 12:32N 30°03' W 090°40'0 0.0
2014-Aug-27 11:33N 30°03' W 090°40'0 0.0
2014-Aug-27 10:33N 30°03' W 090°40'0 0.0
2014-Aug-27 09:33N 30°03' W 090°40'0 0.0
2014-Aug-27 08:33N 30°03' W 090°40'0 0.0
2014-Aug-27 07:33N 30°03' W 090°40'0 0.0
2014-Aug-27 06:33N 30°03' W 090°40'0 0.0
2014-Aug-27 05:33N 30°03' W 090°40'0 0.0
2014-Aug-27 04:33N 30°03' W 090°40'0 0.0
2014-Aug-27 03:33N 30°03' W 090°40'0 0.0
2014-Aug-27 02:33N 30°03' W 090°40'0 0.0
2014-Aug-27 01:33N 30°03' W 090°40'0 0.0
2014-Aug-27 00:33N 30°03' W 090°40'0 0.0
2014-Aug-26 23:33N 30°03' W 090°40'0 0.0
2014-Aug-26 22:33N 30°03' W 090°40'  
2014-Aug-24 08:10N 29°60' W 090°50'  
Track history (hours):
 
Tides and Currents Weather Stations Pressure Air Temp Water Temp Dewpoint Dewpoint Depression Visibility Wind Speed Wind Dir Waves Ship Positions

Vera Bisso

More information available from US FCC via Universal Licensing System and Coast Guard Vessel Documentation Center.

Last reported at 2014-Sep-02 11:25 UTC. Time now 2014-Sep-02 18:55 UTC.
Position N 30°01' W 090°47'.

Length 30 m; draft 6 m.

Type: Tug. MMSI: 367001730.

Date/timePositionNaut miles runAvg speedWind from/ knotsBaromVisibWave heightAir tempDewpointWater temp
2014-Sep-02 11:25N 30°01' W 090°47'8 9.0
2014-Sep-02 10:33N 30°02' W 090°38'4 3.9
2014-Sep-02 09:33N 30°03' W 090°33'0 0.0
2014-Sep-02 08:33N 30°03' W 090°33'0 0.0
2014-Sep-02 07:33N 30°03' W 090°33'0 0.0
2014-Sep-02 06:33N 30°03' W 090°33'0 0.0
2014-Sep-02 05:33N 30°03' W 090°33'0 0.0
2014-Sep-02 04:33N 30°03' W 090°33'1 0.7
2014-Sep-02 03:33N 30°03' W 090°34'1 0.7
2014-Sep-02 02:33N 30°03' W 090°33'0 0.0
2014-Sep-02 01:33N 30°03' W 090°33'0 0.0
2014-Sep-02 00:33N 30°03' W 090°33'0 0.0
2014-Sep-01 23:33N 30°03' W 090°33'0 0.0
2014-Sep-01 22:33N 30°03' W 090°33'0 0.0
2014-Sep-01 21:33N 30°03' W 090°33'0 0.0
2014-Sep-01 20:33N 30°03' W 090°33'2 1.7
2014-Sep-01 19:33N 30°03' W 090°35'2 1.7
2014-Sep-01 18:33N 30°03' W 090°33'0 0.0
2014-Sep-01 17:33N 30°03' W 090°33'0 0.0
2014-Sep-01 16:33N 30°03' W 090°33'0 0.0
2014-Sep-01 15:33N 30°03' W 090°33'0 0.0
2014-Sep-01 14:33N 30°03' W 090°33'0 0.0
2014-Sep-01 13:33N 30°03' W 090°33'0 0.0
2014-Sep-01 12:33N 30°03' W 090°33'0 0.0
2014-Sep-01 11:33N 30°03' W 090°33'0 0.0
2014-Sep-01 10:33N 30°03' W 090°33'1 0.8
2014-Sep-01 09:33N 30°03' W 090°34'1 0.8
2014-Sep-01 08:33N 30°03' W 090°33'0 0.0
2014-Sep-01 07:33N 30°03' W 090°33'0 0.0
2014-Sep-01 06:34N 30°03' W 090°33'0 0.0
2014-Sep-01 05:33N 30°03' W 090°33'0 0.0
2014-Sep-01 04:33N 30°03' W 090°33'0 0.0
2014-Sep-01 03:33N 30°03' W 090°33'0 0.0
2014-Sep-01 02:33N 30°03' W 090°33'0 0.0
2014-Sep-01 01:33N 30°03' W 090°33'0 0.0
2014-Sep-01 00:33N 30°03' W 090°33'0 0.0
2014-Aug-31 23:33N 30°03' W 090°33'0 0.0
2014-Aug-31 22:33N 30°03' W 090°33'0 0.0
2014-Aug-31 21:33N 30°03' W 090°33'0 0.0
2014-Aug-31 20:33N 30°03' W 090°33'0 0.0
2014-Aug-31 19:33N 30°03' W 090°33'0 0.0
2014-Aug-31 18:33N 30°03' W 090°33'0 0.0
2014-Aug-31 17:33N 30°03' W 090°33'0 0.0
2014-Aug-31 16:33N 30°03' W 090°33'0 0.0
2014-Aug-31 15:33N 30°03' W 090°33'0 0.0
2014-Aug-31 14:33N 30°03' W 090°33'0 0.0
2014-Aug-31 13:33N 30°03' W 090°33'2 1.7
2014-Aug-31 12:33N 30°03' W 090°35'0 0.4
2014-Aug-31 11:33N 30°03' W 090°35'0 0.0
2014-Aug-31 10:33N 30°03' W 090°35'0 0.0
2014-Aug-31 09:33N 30°03' W 090°35'0 0.0
2014-Aug-31 08:33N 30°03' W 090°35'0 0.0
2014-Aug-31 07:33N 30°03' W 090°35'0 0.0
2014-Aug-31 06:34N 30°03' W 090°35'0 0.0
2014-Aug-31 05:34N 30°03' W 090°35'0 0.0
2014-Aug-31 04:33N 30°03' W 090°35'0 0.0
2014-Aug-31 03:33N 30°03' W 090°35'0 0.0
2014-Aug-31 02:33N 30°03' W 090°35'0 0.4
2014-Aug-31 01:33N 30°03' W 090°35'0 0.4
2014-Aug-31 00:33N 30°03' W 090°35'0 0.0
2014-Aug-30 23:33N 30°03' W 090°35'0 0.0
2014-Aug-30 22:33N 30°03' W 090°35'0 0.0
2014-Aug-30 21:33N 30°03' W 090°35'0 0.4
2014-Aug-30 20:34N 30°03' W 090°35'0 0.0
2014-Aug-30 19:34N 30°03' W 090°35'0 0.4
2014-Aug-30 18:33N 30°03' W 090°35'0 0.0
2014-Aug-30 17:33N 30°03' W 090°35'0 0.0
2014-Aug-30 16:33N 30°03' W 090°35'0 0.0
2014-Aug-30 15:33N 30°03' W 090°35'0 0.0
2014-Aug-30 14:33N 30°03' W 090°35'0 0.3
2014-Aug-30 13:34N 30°03' W 090°35'0 0.3
2014-Aug-30 12:33N 30°03' W 090°35'0 0.0
2014-Aug-30 11:33N 30°03' W 090°35'3 2.7
2014-Aug-30 10:33N 30°03' W 090°32'1 1.4
2014-Aug-30 09:33N 30°03' W 090°33'0 0.0
2014-Aug-30 08:33N 30°03' W 090°33'0 0.0
2014-Aug-30 07:33N 30°03' W 090°33'0 0.0
2014-Aug-30 06:33N 30°03' W 090°33'0 0.0
2014-Aug-30 05:34N 30°03' W 090°33'0 0.0
2014-Aug-30 04:33N 30°03' W 090°33'0 0.0
2014-Aug-30 03:33N 30°03' W 090°33'0 0.0
2014-Aug-30 02:33N 30°03' W 090°33'0 0.0
2014-Aug-30 01:33N 30°03' W 090°33'0 0.0
2014-Aug-30 00:33N 30°03' W 090°33'0 0.0
2014-Aug-29 23:33N 30°03' W 090°33'0 0.0
2014-Aug-29 22:33N 30°03' W 090°33'0 0.0
2014-Aug-29 21:33N 30°03' W 090°33'1 0.6
2014-Aug-29 20:33N 30°03' W 090°34'2 0.3
2014-Aug-29 14:33N 30°03' W 090°32'1 1.2
2014-Aug-29 13:33N 30°03' W 090°33'0 0.0
2014-Aug-29 12:33N 30°03' W 090°33'1 1.4
2014-Aug-29 11:33N 30°03' W 090°32'1 1.4
2014-Aug-29 10:33N 30°03' W 090°33'0 0.0
2014-Aug-29 09:33N 30°03' W 090°33'0 0.0
2014-Aug-29 08:33N 30°03' W 090°33'0 0.0
2014-Aug-29 07:33N 30°03' W 090°33'0 0.0
2014-Aug-29 06:33N 30°03' W 090°33'0 0.0
2014-Aug-29 05:33N 30°03' W 090°33'0 0.0
2014-Aug-29 04:33N 30°03' W 090°33'0 0.0
2014-Aug-29 03:33N 30°03' W 090°33'0 0.0
2014-Aug-29 02:33N 30°03' W 090°33'0 0.0
2014-Aug-29 01:33N 30°03' W 090°33'0 0.0
2014-Aug-29 00:33N 30°03' W 090°33'5 2.7
2014-Aug-28 22:33N 30°03' W 090°40'3 0.9
2014-Aug-28 19:14N 30°02' W 090°36'1 2.1
2014-Aug-28 18:33N 30°03' W 090°35'1 0.7
2014-Aug-28 17:33N 30°03' W 090°34'1 0.8
2014-Aug-28 16:33N 30°03' W 090°35'4 1.0
2014-Aug-28 12:30N 30°03' W 090°40'0 0.5
2014-Aug-28 11:33N 30°03' W 090°40'9 1.1
2014-Aug-28 03:32N 30°00' W 090°50'9 0.6
2014-Aug-27 12:32N 30°03' W 090°40'0 0.0
2014-Aug-27 11:33N 30°03' W 090°40'0 0.0
2014-Aug-27 10:33N 30°03' W 090°40'0 0.0
2014-Aug-27 09:33N 30°03' W 090°40'0 0.0
2014-Aug-27 08:33N 30°03' W 090°40'0 0.0
2014-Aug-27 07:33N 30°03' W 090°40'0 0.0
2014-Aug-27 06:33N 30°03' W 090°40'0 0.0
2014-Aug-27 05:33N 30°03' W 090°40'0 0.0
2014-Aug-27 04:33N 30°03' W 090°40'0 0.0
2014-Aug-27 03:33N 30°03' W 090°40'0 0.0
2014-Aug-27 02:33N 30°03' W 090°40'0 0.0
2014-Aug-27 01:33N 30°03' W 090°40'0 0.0
2014-Aug-27 00:33N 30°03' W 090°40'0 0.0
2014-Aug-26 23:33N 30°03' W 090°40'0 0.0
2014-Aug-26 22:33N 30°03' W 090°40'  
2014-Aug-24 08:10N 29°60' W 090°50'  

Dump ship's entire track history